sensor_id;sensor_type;location;lat;lon;timestamp;temperature;humidity
15172;DHT22;7686;52.184;9.280;2023-02-04T00:02:03;26.40;35.00
15172;DHT22;7686;52.184;9.280;2023-02-04T00:04:29;26.40;35.00
15172;DHT22;7686;52.184;9.280;2023-02-04T00:06:56;26.40;34.90
15172;DHT22;7686;52.184;9.280;2023-02-04T00:09:22;26.40;34.90
15172;DHT22;7686;52.184;9.280;2023-02-04T00:11:49;26.40;34.90
15172;DHT22;7686;52.184;9.280;2023-02-04T00:14:15;26.40;34.90
15172;DHT22;7686;52.184;9.280;2023-02-04T00:16:42;26.40;34.90
15172;DHT22;7686;52.184;9.280;2023-02-04T00:19:09;26.40;35.00
15172;DHT22;7686;52.184;9.280;2023-02-04T00:21:35;26.40;34.90
15172;DHT22;7686;52.184;9.280;2023-02-04T00:24:02;26.40;35.00
15172;DHT22;7686;52.184;9.280;2023-02-04T00:26:29;26.40;34.90
15172;DHT22;7686;52.184;9.280;2023-02-04T00:28:55;26.40;35.00
15172;DHT22;7686;52.184;9.280;2023-02-04T00:31:22;26.40;35.00
15172;DHT22;7686;52.184;9.280;2023-02-04T00:33:49;26.40;35.00
15172;DHT22;7686;52.184;9.280;2023-02-04T00:36:15;26.40;35.00
15172;DHT22;7686;52.184;9.280;2023-02-04T00:38:42;26.40;35.00
15172;DHT22;7686;52.184;9.280;2023-02-04T00:41:09;26.40;35.00
15172;DHT22;7686;52.184;9.280;2023-02-04T00:43:35;26.40;35.00
15172;DHT22;7686;52.184;9.280;2023-02-04T00:46:02;26.40;35.00
15172;DHT22;7686;52.184;9.280;2023-02-04T00:48:28;26.30;34.90
15172;DHT22;7686;52.184;9.280;2023-02-04T00:50:55;26.40;35.00
15172;DHT22;7686;52.184;9.280;2023-02-04T00:53:22;26.40;35.00
15172;DHT22;7686;52.184;9.280;2023-02-04T00:55:48;26.40;35.00
15172;DHT22;7686;52.184;9.280;2023-02-04T00:58:15;26.40;35.00
15172;DHT22;7686;52.184;9.280;2023-02-04T01:00:41;26.30;34.90
15172;DHT22;7686;52.184;9.280;2023-02-04T01:03:08;26.30;35.00
15172;DHT22;7686;52.184;9.280;2023-02-04T01:05:35;26.30;34.90
15172;DHT22;7686;52.184;9.280;2023-02-04T01:08:02;26.30;35.00
15172;DHT22;7686;52.184;9.280;2023-02-04T01:10:28;26.30;34.90
15172;DHT22;7686;52.184;9.280;2023-02-04T01:12:55;26.30;34.90
15172;DHT22;7686;52.184;9.280;2023-02-04T01:15:22;26.30;34.90
15172;DHT22;7686;52.184;9.280;2023-02-04T01:17:49;26.30;34.90
15172;DHT22;7686;52.184;9.280;2023-02-04T01:20:16;26.30;34.90
15172;DHT22;7686;52.184;9.280;2023-02-04T01:22:42;26.30;35.00
15172;DHT22;7686;52.184;9.280;2023-02-04T01:25:09;26.30;34.90
15172;DHT22;7686;52.184;9.280;2023-02-04T01:27:35;26.30;34.90
15172;DHT22;7686;52.184;9.280;2023-02-04T01:30:04;26.30;35.70
15172;DHT22;7686;52.184;9.280;2023-02-04T01:32:31;26.30;34.90
15172;DHT22;7686;52.184;9.280;2023-02-04T01:34:57;26.30;34.90
15172;DHT22;7686;52.184;9.280;2023-02-04T01:37:24;26.30;34.90
15172;DHT22;7686;52.184;9.280;2023-02-04T01:39:50;26.30;34.90
15172;DHT22;7686;52.184;9.280;2023-02-04T01:42:17;26.30;34.90
15172;DHT22;7686;52.184;9.280;2023-02-04T01:44:44;26.30;34.90
15172;DHT22;7686;52.184;9.280;2023-02-04T01:47:11;26.30;34.90
15172;DHT22;7686;52.184;9.280;2023-02-04T01:49:37;26.30;34.90
15172;DHT22;7686;52.184;9.280;2023-02-04T01:52:04;26.30;34.90
15172;DHT22;7686;52.184;9.280;2023-02-04T01:54:31;26.30;34.90
15172;DHT22;7686;52.184;9.280;2023-02-04T01:56:58;26.30;34.90
15172;DHT22;7686;52.184;9.280;2023-02-04T01:59:25;26.30;34.90
15172;DHT22;7686;52.184;9.280;2023-02-04T02:01:53;26.40;35.00
15172;DHT22;7686;52.184;9.280;2023-02-04T02:04:26;26.30;35.00
15172;DHT22;7686;52.184;9.280;2023-02-04T02:06:56;26.30;35.00
15172;DHT22;7686;52.184;9.280;2023-02-04T02:09:25;26.20;34.90
15172;DHT22;7686;52.184;9.280;2023-02-04T02:11:52;26.30;35.00
15172;DHT22;7686;52.184;9.280;2023-02-04T02:14:19;26.30;35.00
15172;DHT22;7686;52.184;9.280;2023-02-04T02:16:46;26.30;34.90
15172;DHT22;7686;52.184;9.280;2023-02-04T02:19:19;26.30;34.90
15172;DHT22;7686;52.184;9.280;2023-02-04T02:24:53;26.20;34.80
15172;DHT22;7686;52.184;9.280;2023-02-04T02:27:21;26.20;34.80
15172;DHT22;7686;52.184;9.280;2023-02-04T02:29:49;26.20;34.80
15172;DHT22;7686;52.184;9.280;2023-02-04T02:32:17;26.20;34.90
15172;DHT22;7686;52.184;9.280;2023-02-04T02:34:44;26.30;35.00
15172;DHT22;7686;52.184;9.280;2023-02-04T02:37:12;26.20;34.90
15172;DHT22;7686;52.184;9.280;2023-02-04T02:39:41;26.20;34.90
15172;DHT22;7686;52.184;9.280;2023-02-04T02:42:14;26.30;35.00
15172;DHT22;7686;52.184;9.280;2023-02-04T02:44:43;26.20;35.00
15172;DHT22;7686;52.184;9.280;2023-02-04T02:47:13;26.20;35.00
15172;DHT22;7686;52.184;9.280;2023-02-04T02:49:41;26.20;35.00
15172;DHT22;7686;52.184;9.280;2023-02-04T02:52:11;26.20;35.00
15172;DHT22;7686;52.184;9.280;2023-02-04T02:54:39;26.20;35.00
15172;DHT22;7686;52.184;9.280;2023-02-04T02:57:14;26.20;35.00
15172;DHT22;7686;52.184;9.280;2023-02-04T02:59:42;26.20;34.90
15172;DHT22;7686;52.184;9.280;2023-02-04T03:02:10;26.20;34.90
15172;DHT22;7686;52.184;9.280;2023-02-04T03:04:41;26.10;34.80
15172;DHT22;7686;52.184;9.280;2023-02-04T03:07:10;26.20;34.90
15172;DHT22;7686;52.184;9.280;2023-02-04T03:09:37;26.20;34.90
15172;DHT22;7686;52.184;9.280;2023-02-04T03:12:05;26.20;34.90
15172;DHT22;7686;52.184;9.280;2023-02-04T03:14:32;26.20;34.90
15172;DHT22;7686;52.184;9.280;2023-02-04T03:17:00;26.20;35.00
15172;DHT22;7686;52.184;9.280;2023-02-04T03:19:27;26.20;34.90
15172;DHT22;7686;52.184;9.280;2023-02-04T03:21:55;26.20;35.00
15172;DHT22;7686;52.184;9.280;2023-02-04T03:24:22;26.20;35.00
15172;DHT22;7686;52.184;9.280;2023-02-04T03:26:49;26.20;35.00
15172;DHT22;7686;52.184;9.280;2023-02-04T03:29:15;26.20;35.00
15172;DHT22;7686;52.184;9.280;2023-02-04T03:31:42;26.20;35.00
15172;DHT22;7686;52.184;9.280;2023-02-04T03:34:09;26.20;35.00
15172;DHT22;7686;52.184;9.280;2023-02-04T03:36:35;26.20;35.00
15172;DHT22;7686;52.184;9.280;2023-02-04T03:39:03;26.20;34.90
15172;DHT22;7686;52.184;9.280;2023-02-04T03:41:30;26.20;35.00
15172;DHT22;7686;52.184;9.280;2023-02-04T03:43:56;26.20;34.90
15172;DHT22;7686;52.184;9.280;2023-02-04T03:46:23;26.20;35.00
15172;DHT22;7686;52.184;9.280;2023-02-04T03:48:51;26.10;34.90
15172;DHT22;7686;52.184;9.280;2023-02-04T03:51:17;26.20;35.00
15172;DHT22;7686;52.184;9.280;2023-02-04T03:53:44;26.20;35.00
15172;DHT22;7686;52.184;9.280;2023-02-04T03:56:11;26.20;35.00
15172;DHT22;7686;52.184;9.280;2023-02-04T03:58:37;26.10;34.90
15172;DHT22;7686;52.184;9.280;2023-02-04T04:01:04;26.10;34.90
15172;DHT22;7686;52.184;9.280;2023-02-04T04:03:31;26.10;34.90
15172;DHT22;7686;52.184;9.280;2023-02-04T04:05:57;26.10;34.90
15172;DHT22;7686;52.184;9.280;2023-02-04T04:08:24;26.10;35.00
15172;DHT22;7686;52.184;9.280;2023-02-04T04:10:51;26.10;34.90
15172;DHT22;7686;52.184;9.280;2023-02-04T04:13:17;26.10;35.00
15172;DHT22;7686;52.184;9.280;2023-02-04T04:15:44;26.10;34.90
15172;DHT22;7686;52.184;9.280;2023-02-04T04:18:10;26.10;35.00
15172;DHT22;7686;52.184;9.280;2023-02-04T04:20:37;26.10;34.90
15172;DHT22;7686;52.184;9.280;2023-02-04T04:23:04;26.10;34.90
15172;DHT22;7686;52.184;9.280;2023-02-04T04:25:30;26.10;34.90
15172;DHT22;7686;52.184;9.280;2023-02-04T04:27:57;26.10;35.00
15172;DHT22;7686;52.184;9.280;2023-02-04T04:30:23;26.10;35.60
15172;DHT22;7686;52.184;9.280;2023-02-04T04:32:50;26.10;34.90
15172;DHT22;7686;52.184;9.280;2023-02-04T04:35:17;26.10;34.90
15172;DHT22;7686;52.184;9.280;2023-02-04T04:37:44;26.10;34.90
15172;DHT22;7686;52.184;9.280;2023-02-04T04:40:11;26.10;35.00
15172;DHT22;7686;52.184;9.280;2023-02-04T04:42:38;26.10;34.90
15172;DHT22;7686;52.184;9.280;2023-02-04T04:45:06;26.10;35.00
15172;DHT22;7686;52.184;9.280;2023-02-04T04:47:33;26.10;34.90
15172;DHT22;7686;52.184;9.280;2023-02-04T04:50:00;26.10;35.00
15172;DHT22;7686;52.184;9.280;2023-02-04T04:52:26;26.10;34.90
15172;DHT22;7686;52.184;9.280;2023-02-04T04:54:53;26.10;35.00
15172;DHT22;7686;52.184;9.280;2023-02-04T04:57:20;26.10;35.00
15172;DHT22;7686;52.184;9.280;2023-02-04T04:59:46;26.10;34.90
15172;DHT22;7686;52.184;9.280;2023-02-04T05:02:13;26.10;34.90
15172;DHT22;7686;52.184;9.280;2023-02-04T05:04:40;26.10;34.90
15172;DHT22;7686;52.184;9.280;2023-02-04T05:07:06;26.10;34.90
15172;DHT22;7686;52.184;9.280;2023-02-04T05:09:33;26.10;35.00
15172;DHT22;7686;52.184;9.280;2023-02-04T05:11:59;26.10;35.00
15172;DHT22;7686;52.184;9.280;2023-02-04T05:14:26;26.10;35.00
15172;DHT22;7686;52.184;9.280;2023-02-04T05:16:52;26.10;35.00
15172;DHT22;7686;52.184;9.280;2023-02-04T05:19:19;26.10;35.00
15172;DHT22;7686;52.184;9.280;2023-02-04T05:21:46;26.10;34.90
15172;DHT22;7686;52.184;9.280;2023-02-04T05:24:12;26.10;34.90
15172;DHT22;7686;52.184;9.280;2023-02-04T05:26:39;26.10;35.00
15172;DHT22;7686;52.184;9.280;2023-02-04T05:29:06;26.10;34.90
15172;DHT22;7686;52.184;9.280;2023-02-04T05:31:33;26.00;34.90
15172;DHT22;7686;52.184;9.280;2023-02-04T05:33:59;26.10;35.00
15172;DHT22;7686;52.184;9.280;2023-02-04T05:36:26;26.10;34.90
15172;DHT22;7686;52.184;9.280;2023-02-04T05:38:53;26.00;34.80
15172;DHT22;7686;52.184;9.280;2023-02-04T05:41:20;26.10;34.90
15172;DHT22;7686;52.184;9.280;2023-02-04T05:43:46;26.10;35.00
15172;DHT22;7686;52.184;9.280;2023-02-04T05:46:13;26.10;34.90
15172;DHT22;7686;52.184;9.280;2023-02-04T05:48:39;26.10;34.90
15172;DHT22;7686;52.184;9.280;2023-02-04T05:51:06;26.00;34.80
15172;DHT22;7686;52.184;9.280;2023-02-04T05:53:33;26.00;34.80
15172;DHT22;7686;52.184;9.280;2023-02-04T05:55:59;26.00;34.80
15172;DHT22;7686;52.184;9.280;2023-02-04T05:58:26;26.10;34.90
15172;DHT22;7686;52.184;9.280;2023-02-04T06:00:59;26.10;34.80
15172;DHT22;7686;52.184;9.280;2023-02-04T06:03:27;26.00;34.80
15172;DHT22;7686;52.184;9.280;2023-02-04T06:05:54;26.10;34.80
15172;DHT22;7686;52.184;9.280;2023-02-04T06:08:20;26.10;34.80
15172;DHT22;7686;52.184;9.280;2023-02-04T06:10:47;26.10;34.80
15172;DHT22;7686;52.184;9.280;2023-02-04T06:13:14;26.00;34.80
15172;DHT22;7686;52.184;9.280;2023-02-04T06:15:41;26.00;34.80
15172;DHT22;7686;52.184;9.280;2023-02-04T06:18:08;26.00;34.80
15172;DHT22;7686;52.184;9.280;2023-02-04T06:20:34;26.00;34.80
15172;DHT22;7686;52.184;9.280;2023-02-04T06:23:01;26.00;34.80
15172;DHT22;7686;52.184;9.280;2023-02-04T06:25:28;26.00;34.80
15172;DHT22;7686;52.184;9.280;2023-02-04T06:27:54;26.20;35.00
15172;DHT22;7686;52.184;9.280;2023-02-04T06:30:21;26.00;34.80
15172;DHT22;7686;52.184;9.280;2023-02-04T06:32:47;26.00;34.80
15172;DHT22;7686;52.184;9.280;2023-02-04T06:35:14;26.00;34.80
15172;DHT22;7686;52.184;9.280;2023-02-04T06:37:42;26.00;34.80
15172;DHT22;7686;52.184;9.280;2023-02-04T06:40:10;26.00;34.80
15172;DHT22;7686;52.184;9.280;2023-02-04T06:42:37;26.00;35.60
15172;DHT22;7686;52.184;9.280;2023-02-04T06:45:04;26.00;34.80
15172;DHT22;7686;52.184;9.280;2023-02-04T06:47:31;26.00;34.80
15172;DHT22;7686;52.184;9.280;2023-02-04T06:49:57;26.00;34.80
15172;DHT22;7686;52.184;9.280;2023-02-04T06:52:24;26.00;34.80
15172;DHT22;7686;52.184;9.280;2023-02-04T06:54:50;26.00;34.80
15172;DHT22;7686;52.184;9.280;2023-02-04T06:57:17;25.90;34.70
15172;DHT22;7686;52.184;9.280;2023-02-04T06:59:44;26.00;34.80
15172;DHT22;7686;52.184;9.280;2023-02-04T07:02:12;25.90;34.80
15172;DHT22;7686;52.184;9.280;2023-02-04T07:04:39;26.00;34.80
15172;DHT22;7686;52.184;9.280;2023-02-04T07:07:10;26.00;34.80
15172;DHT22;7686;52.184;9.280;2023-02-04T07:09:37;26.00;34.80
15172;DHT22;7686;52.184;9.280;2023-02-04T07:12:05;26.00;34.90
15172;DHT22;7686;52.184;9.280;2023-02-04T07:14:32;25.80;34.70
15172;DHT22;7686;52.184;9.280;2023-02-04T07:16:59;26.00;34.90
15172;DHT22;7686;52.184;9.280;2023-02-04T07:19:26;26.00;34.90
15172;DHT22;7686;52.184;9.280;2023-02-04T07:21:53;26.00;34.90
15172;DHT22;7686;52.184;9.280;2023-02-04T07:24:22;26.00;34.90
15172;DHT22;7686;52.184;9.280;2023-02-04T07:26:49;26.00;34.90
15172;DHT22;7686;52.184;9.280;2023-02-04T07:29:16;26.00;34.90
15172;DHT22;7686;52.184;9.280;2023-02-04T07:31:51;26.00;34.90
15172;DHT22;7686;52.184;9.280;2023-02-04T07:34:18;26.00;34.90
15172;DHT22;7686;52.184;9.280;2023-02-04T07:36:45;26.00;34.90
15172;DHT22;7686;52.184;9.280;2023-02-04T07:39:12;26.00;34.90
15172;DHT22;7686;52.184;9.280;2023-02-04T07:41:39;26.00;34.90
15172;DHT22;7686;52.184;9.280;2023-02-04T07:44:06;26.00;34.90
15172;DHT22;7686;52.184;9.280;2023-02-04T07:46:33;26.00;34.90
15172;DHT22;7686;52.184;9.280;2023-02-04T07:48:59;26.10;35.00
15172;DHT22;7686;52.184;9.280;2023-02-04T07:51:26;26.00;34.90
15172;DHT22;7686;52.184;9.280;2023-02-04T07:53:54;26.00;34.90
15172;DHT22;7686;52.184;9.280;2023-02-04T07:56:21;26.00;34.90
15172;DHT22;7686;52.184;9.280;2023-02-04T07:58:48;26.00;34.90
15172;DHT22;7686;52.184;9.280;2023-02-04T08:01:14;26.00;34.90
15172;DHT22;7686;52.184;9.280;2023-02-04T08:03:42;26.00;34.90
15172;DHT22;7686;52.184;9.280;2023-02-04T08:06:09;26.00;34.90
15172;DHT22;7686;52.184;9.280;2023-02-04T08:08:35;26.00;34.90
15172;DHT22;7686;52.184;9.280;2023-02-04T08:11:02;26.10;35.00
15172;DHT22;7686;52.184;9.280;2023-02-04T08:13:29;26.10;35.00
15172;DHT22;7686;52.184;9.280;2023-02-04T08:15:55;26.10;35.00
15172;DHT22;7686;52.184;9.280;2023-02-04T08:18:22;26.10;35.00
15172;DHT22;7686;52.184;9.280;2023-02-04T08:20:50;26.10;34.90
15172;DHT22;7686;52.184;9.280;2023-02-04T08:23:17;26.10;34.90
15172;DHT22;7686;52.184;9.280;2023-02-04T08:25:44;26.10;35.00
15172;DHT22;7686;52.184;9.280;2023-02-04T08:28:11;26.10;35.00
15172;DHT22;7686;52.184;9.280;2023-02-04T08:30:37;26.10;34.90
15172;DHT22;7686;52.184;9.280;2023-02-04T08:33:04;26.10;34.90
15172;DHT22;7686;52.184;9.280;2023-02-04T08:35:31;26.10;34.90
15172;DHT22;7686;52.184;9.280;2023-02-04T08:37:57;26.10;34.90
15172;DHT22;7686;52.184;9.280;2023-02-04T08:40:24;26.10;34.90
15172;DHT22;7686;52.184;9.280;2023-02-04T08:42:51;26.20;35.00
15172;DHT22;7686;52.184;9.280;2023-02-04T08:45:17;26.20;35.00
15172;DHT22;7686;52.184;9.280;2023-02-04T08:47:44;26.30;35.10
15172;DHT22;7686;52.184;9.280;2023-02-04T08:50:11;26.20;35.00
15172;DHT22;7686;52.184;9.280;2023-02-04T08:52:37;26.20;35.10
15172;DHT22;7686;52.184;9.280;2023-02-04T08:55:04;26.30;35.10
15172;DHT22;7686;52.184;9.280;2023-02-04T08:57:31;26.30;35.00
15172;DHT22;7686;52.184;9.280;2023-02-04T08:59:59;26.30;35.00
15172;DHT22;7686;52.184;9.280;2023-02-04T09:02:26;26.30;35.10
15172;DHT22;7686;52.184;9.280;2023-02-04T09:04:53;26.40;35.10
15172;DHT22;7686;52.184;9.280;2023-02-04T09:07:19;26.40;35.00
15172;DHT22;7686;52.184;9.280;2023-02-04T09:09:47;26.40;35.00
15172;DHT22;7686;52.184;9.280;2023-02-04T09:12:13;26.50;35.00
15172;DHT22;7686;52.184;9.280;2023-02-04T09:14:40;26.50;35.00
15172;DHT22;7686;52.184;9.280;2023-02-04T09:17:06;26.60;35.00
15172;DHT22;7686;52.184;9.280;2023-02-04T09:19:33;26.70;35.00
15172;DHT22;7686;52.184;9.280;2023-02-04T09:22:00;26.70;34.90
15172;DHT22;7686;52.184;9.280;2023-02-04T09:24:26;26.80;35.00
15172;DHT22;7686;52.184;9.280;2023-02-04T09:26:53;26.80;34.90
15172;DHT22;7686;52.184;9.280;2023-02-04T09:29:20;26.90;35.00
15172;DHT22;7686;52.184;9.280;2023-02-04T09:31:46;27.00;35.00
15172;DHT22;7686;52.184;9.280;2023-02-04T09:34:14;27.00;34.80
15172;DHT22;7686;52.184;9.280;2023-02-04T09:36:41;27.10;34.80
15172;DHT22;7686;52.184;9.280;2023-02-04T09:39:07;27.10;34.80
15172;DHT22;7686;52.184;9.280;2023-02-04T09:41:38;27.20;34.80
15172;DHT22;7686;52.184;9.280;2023-02-04T09:44:12;27.30;34.80
15172;DHT22;7686;52.184;9.280;2023-02-04T09:46:42;27.20;35.30
15172;DHT22;7686;52.184;9.280;2023-02-04T09:49:10;27.50;34.70
15172;DHT22;7686;52.184;9.280;2023-02-04T09:51:37;27.60;34.70
15172;DHT22;7686;52.184;9.280;2023-02-04T09:54:21;27.60;34.50
15172;DHT22;7686;52.184;9.280;2023-02-04T09:56:48;27.70;34.30
15172;DHT22;7686;52.184;9.280;2023-02-04T09:59:18;27.70;34.30
15172;DHT22;7686;52.184;9.280;2023-02-04T10:01:51;27.80;34.10
15172;DHT22;7686;52.184;9.280;2023-02-04T10:04:21;27.90;34.10
15172;DHT22;7686;52.184;9.280;2023-02-04T10:06:48;27.90;34.00
15172;DHT22;7686;52.184;9.280;2023-02-04T10:09:15;27.90;33.90
15172;DHT22;7686;52.184;9.280;2023-02-04T10:11:43;27.90;33.80
15172;DHT22;7686;52.184;9.280;2023-02-04T10:14:20;28.00;33.80
15172;DHT22;7686;52.184;9.280;2023-02-04T10:16:53;27.90;33.70
15172;DHT22;7686;52.184;9.280;2023-02-04T10:19:24;27.90;33.60
15172;DHT22;7686;52.184;9.280;2023-02-04T10:21:51;27.90;33.70
15172;DHT22;7686;52.184;9.280;2023-02-04T10:24:21;28.00;33.70
15172;DHT22;7686;52.184;9.280;2023-02-04T10:26:51;27.90;33.70
15172;DHT22;7686;52.184;9.280;2023-02-04T10:29:20;27.90;33.70
15172;DHT22;7686;52.184;9.280;2023-02-04T10:31:49;27.90;33.70
15172;DHT22;7686;52.184;9.280;2023-02-04T10:34:20;27.90;33.80
15172;DHT22;7686;52.184;9.280;2023-02-04T10:36:55;27.90;33.90
15172;DHT22;7686;52.184;9.280;2023-02-04T10:39:25;27.90;33.70
15172;DHT22;7686;52.184;9.280;2023-02-04T10:41:59;27.90;33.70
15172;DHT22;7686;52.184;9.280;2023-02-04T10:44:33;27.90;33.70
15172;DHT22;7686;52.184;9.280;2023-02-04T10:47:12;27.90;33.60
15172;DHT22;7686;52.184;9.280;2023-02-04T10:49:49;27.90;33.60
15172;DHT22;7686;52.184;9.280;2023-02-04T10:52:17;27.90;33.60
15172;DHT22;7686;52.184;9.280;2023-02-04T10:54:46;27.90;33.60
15172;DHT22;7686;52.184;9.280;2023-02-04T10:59:53;27.90;33.50
15172;DHT22;7686;52.184;9.280;2023-02-04T11:05:14;27.90;33.60
15172;DHT22;7686;52.184;9.280;2023-02-04T11:07:41;27.90;33.60
15172;DHT22;7686;52.184;9.280;2023-02-04T11:10:17;27.90;33.70
15172;DHT22;7686;52.184;9.280;2023-02-04T11:15:41;27.90;33.60
15172;DHT22;7686;52.184;9.280;2023-02-04T11:18:26;27.90;33.60
15172;DHT22;7686;52.184;9.280;2023-02-04T11:20:55;27.90;33.50
15172;DHT22;7686;52.184;9.280;2023-02-04T11:26:15;27.80;33.50
15172;DHT22;7686;52.184;9.280;2023-02-04T11:37:01;27.80;33.60
15172;DHT22;7686;52.184;9.280;2023-02-04T11:39:39;27.80;33.60
15172;DHT22;7686;52.184;9.280;2023-02-04T11:42:20;27.80;33.60
15172;DHT22;7686;52.184;9.280;2023-02-04T11:44:55;27.80;33.60
15172;DHT22;7686;52.184;9.280;2023-02-04T11:47:24;27.80;33.60
15172;DHT22;7686;52.184;9.280;2023-02-04T11:50:03;27.80;33.60
15172;DHT22;7686;52.184;9.280;2023-02-04T11:52:35;27.80;33.60
15172;DHT22;7686;52.184;9.280;2023-02-04T11:55:03;27.80;33.60
15172;DHT22;7686;52.184;9.280;2023-02-04T11:57:40;27.80;33.60
15172;DHT22;7686;52.184;9.280;2023-02-04T12:00:16;27.80;33.60
15172;DHT22;7686;52.184;9.280;2023-02-04T12:02:54;27.80;33.60
15172;DHT22;7686;52.184;9.280;2023-02-04T12:05:28;27.80;33.70
15172;DHT22;7686;52.184;9.280;2023-02-04T12:08:09;27.80;33.60
15172;DHT22;7686;52.184;9.280;2023-02-04T12:10:37;27.80;33.60
15172;DHT22;7686;52.184;9.280;2023-02-04T12:13:15;27.80;33.60
15172;DHT22;7686;52.184;9.280;2023-02-04T12:15:41;27.80;33.60
15172;DHT22;7686;52.184;9.280;2023-02-04T12:18:17;27.80;33.60
15172;DHT22;7686;52.184;9.280;2023-02-04T12:20:43;27.80;33.60
15172;DHT22;7686;52.184;9.280;2023-02-04T12:23:10;27.80;33.60
15172;DHT22;7686;52.184;9.280;2023-02-04T12:25:36;27.90;33.80
15172;DHT22;7686;52.184;9.280;2023-02-04T12:28:03;27.90;33.80
15172;DHT22;7686;52.184;9.280;2023-02-04T12:30:30;27.90;33.80
15172;DHT22;7686;52.184;9.280;2023-02-04T12:32:56;27.90;33.90
15172;DHT22;7686;52.184;9.280;2023-02-04T12:35:23;27.90;33.90
15172;DHT22;7686;52.184;9.280;2023-02-04T12:37:50;28.00;34.00
15172;DHT22;7686;52.184;9.280;2023-02-04T12:40:18;28.00;34.00
15172;DHT22;7686;52.184;9.280;2023-02-04T12:42:45;28.10;34.00
15172;DHT22;7686;52.184;9.280;2023-02-04T12:45:14;28.10;33.90
15172;DHT22;7686;52.184;9.280;2023-02-04T12:47:42;28.20;33.90
15172;DHT22;7686;52.184;9.280;2023-02-04T12:50:12;28.30;33.90
15172;DHT22;7686;52.184;9.280;2023-02-04T12:52:38;28.30;33.90
15172;DHT22;7686;52.184;9.280;2023-02-04T12:55:07;28.40;33.90
15172;DHT22;7686;52.184;9.280;2023-02-04T12:57:34;28.50;33.80
15172;DHT22;7686;52.184;9.280;2023-02-04T13:00:01;28.50;33.80
15172;DHT22;7686;52.184;9.280;2023-02-04T13:02:28;28.60;33.80
15172;DHT22;7686;52.184;9.280;2023-02-04T13:04:54;28.60;33.60
15172;DHT22;7686;52.184;9.280;2023-02-04T13:07:22;28.60;33.60
15172;DHT22;7686;52.184;9.280;2023-02-04T13:09:48;28.70;33.60
15172;DHT22;7686;52.184;9.280;2023-02-04T13:12:15;28.80;33.60
15172;DHT22;7686;52.184;9.280;2023-02-04T13:14:42;28.70;33.50
15172;DHT22;7686;52.184;9.280;2023-02-04T13:17:09;28.80;33.50
15172;DHT22;7686;52.184;9.280;2023-02-04T13:19:36;28.80;33.50
15172;DHT22;7686;52.184;9.280;2023-02-04T13:22:02;28.80;33.40
15172;DHT22;7686;52.184;9.280;2023-02-04T13:24:29;28.90;33.40
15172;DHT22;7686;52.184;9.280;2023-02-04T13:26:56;28.80;33.30
15172;DHT22;7686;52.184;9.280;2023-02-04T13:29:23;28.90;33.30
15172;DHT22;7686;52.184;9.280;2023-02-04T13:31:49;28.90;33.20
15172;DHT22;7686;52.184;9.280;2023-02-04T13:34:18;28.90;33.20
15172;DHT22;7686;52.184;9.280;2023-02-04T13:36:44;28.90;33.10
15172;DHT22;7686;52.184;9.280;2023-02-04T13:39:11;28.90;33.10
15172;DHT22;7686;52.184;9.280;2023-02-04T13:41:38;29.00;33.10
15172;DHT22;7686;52.184;9.280;2023-02-04T13:44:06;28.90;33.10
15172;DHT22;7686;52.184;9.280;2023-02-04T13:46:33;28.90;33.00
15172;DHT22;7686;52.184;9.280;2023-02-04T13:48:59;28.90;33.00
15172;DHT22;7686;52.184;9.280;2023-02-04T13:51:26;28.90;33.10
15172;DHT22;7686;52.184;9.280;2023-02-04T13:53:52;28.90;33.00
15172;DHT22;7686;52.184;9.280;2023-02-04T13:56:19;28.90;33.00
15172;DHT22;7686;52.184;9.280;2023-02-04T13:58:46;28.90;33.00
15172;DHT22;7686;52.184;9.280;2023-02-04T14:01:13;29.00;33.00
15172;DHT22;7686;52.184;9.280;2023-02-04T14:03:40;28.90;33.00
15172;DHT22;7686;52.184;9.280;2023-02-04T14:06:08;28.90;33.00
15172;DHT22;7686;52.184;9.280;2023-02-04T14:08:35;28.90;33.00
15172;DHT22;7686;52.184;9.280;2023-02-04T14:11:02;28.90;33.00
15172;DHT22;7686;52.184;9.280;2023-02-04T14:13:29;28.80;33.00
15172;DHT22;7686;52.184;9.280;2023-02-04T14:15:55;28.80;33.00
15172;DHT22;7686;52.184;9.280;2023-02-04T14:18:22;28.80;33.00
15172;DHT22;7686;52.184;9.280;2023-02-04T14:20:49;28.80;33.00
15172;DHT22;7686;52.184;9.280;2023-02-04T14:23:15;28.80;33.10
15172;DHT22;7686;52.184;9.280;2023-02-04T14:25:42;28.80;33.00
15172;DHT22;7686;52.184;9.280;2023-02-04T14:28:08;28.80;33.00
15172;DHT22;7686;52.184;9.280;2023-02-04T14:30:36;28.80;33.00
15172;DHT22;7686;52.184;9.280;2023-02-04T14:33:03;28.80;33.00
15172;DHT22;7686;52.184;9.280;2023-02-04T14:35:30;28.90;33.10
15172;DHT22;7686;52.184;9.280;2023-02-04T14:37:57;28.80;33.00
15172;DHT22;7686;52.184;9.280;2023-02-04T14:40:24;28.80;33.00
15172;DHT22;7686;52.184;9.280;2023-02-04T14:42:50;28.90;33.10
15172;DHT22;7686;52.184;9.280;2023-02-04T14:45:17;28.80;33.10
15172;DHT22;7686;52.184;9.280;2023-02-04T14:47:44;28.70;33.00
15172;DHT22;7686;52.184;9.280;2023-02-04T14:50:13;28.80;33.00
15172;DHT22;7686;52.184;9.280;2023-02-04T14:52:40;28.80;33.00
15172;DHT22;7686;52.184;9.280;2023-02-04T14:55:07;28.70;33.00
15172;DHT22;7686;52.184;9.280;2023-02-04T14:57:38;28.70;33.00
15172;DHT22;7686;52.184;9.280;2023-02-04T15:00:05;28.70;33.00
15172;DHT22;7686;52.184;9.280;2023-02-04T15:02:32;28.70;33.00
15172;DHT22;7686;52.184;9.280;2023-02-04T15:04:59;28.70;33.10
15172;DHT22;7686;52.184;9.280;2023-02-04T15:07:25;28.70;33.00
15172;DHT22;7686;52.184;9.280;2023-02-04T15:09:52;28.70;33.00
15172;DHT22;7686;52.184;9.280;2023-02-04T15:12:19;28.60;33.00
15172;DHT22;7686;52.184;9.280;2023-02-04T15:14:45;28.60;32.90
15172;DHT22;7686;52.184;9.280;2023-02-04T15:17:12;28.60;33.00
15172;DHT22;7686;52.184;9.280;2023-02-04T15:19:39;28.60;33.00
15172;DHT22;7686;52.184;9.280;2023-02-04T15:22:05;28.60;33.00
15172;DHT22;7686;52.184;9.280;2023-02-04T15:24:32;28.60;33.00
15172;DHT22;7686;52.184;9.280;2023-02-04T15:26:59;28.60;33.00
15172;DHT22;7686;52.184;9.280;2023-02-04T15:29:25;28.60;33.00
15172;DHT22;7686;52.184;9.280;2023-02-04T15:31:52;28.60;33.00
15172;DHT22;7686;52.184;9.280;2023-02-04T15:34:18;28.50;33.00
15172;DHT22;7686;52.184;9.280;2023-02-04T15:36:45;28.50;33.00
15172;DHT22;7686;52.184;9.280;2023-02-04T15:39:12;28.50;33.00
15172;DHT22;7686;52.184;9.280;2023-02-04T15:41:39;28.50;33.00
15172;DHT22;7686;52.184;9.280;2023-02-04T15:44:05;28.50;33.00
15172;DHT22;7686;52.184;9.280;2023-02-04T15:46:32;28.40;33.00
15172;DHT22;7686;52.184;9.280;2023-02-04T15:49:00;28.50;33.10
15172;DHT22;7686;52.184;9.280;2023-02-04T15:51:27;28.40;33.10
15172;DHT22;7686;52.184;9.280;2023-02-04T15:53:54;28.40;33.10
15172;DHT22;7686;52.184;9.280;2023-02-04T15:56:21;28.40;33.10
15172;DHT22;7686;52.184;9.280;2023-02-04T15:58:47;28.40;33.10
15172;DHT22;7686;52.184;9.280;2023-02-04T16:01:14;28.30;33.00
15172;DHT22;7686;52.184;9.280;2023-02-04T16:03:41;28.30;33.10
15172;DHT22;7686;52.184;9.280;2023-02-04T16:06:10;28.30;33.10
15172;DHT22;7686;52.184;9.280;2023-02-04T16:08:36;28.30;33.10
15172;DHT22;7686;52.184;9.280;2023-02-04T16:11:04;28.30;33.10